createdAt,value
2018-07-24T00:04:05.434Z,99.90
2018-07-24T00:06:09.325Z,99.90
2018-07-24T00:08:13.046Z,99.90
2018-07-24T00:12:20.233Z,99.90
2018-07-24T00:14:24.099Z,99.90
2018-07-24T00:16:27.836Z,99.90
2018-07-24T00:18:31.625Z,99.90
2018-07-24T00:20:35.906Z,99.90
2018-07-24T00:22:39.745Z,99.90
2018-07-24T00:24:43.491Z,99.90
2018-07-24T00:26:47.381Z,99.90
2018-07-24T00:30:54.641Z,99.90
2018-07-24T00:35:01.841Z,99.90
2018-07-24T00:37:05.733Z,99.90
2018-07-24T00:43:16.459Z,99.90
2018-07-24T00:45:20.212Z,99.90
2018-07-24T00:49:27.411Z,99.90
2018-07-24T00:53:34.685Z,99.90
2018-07-24T00:55:38.509Z,99.90
2018-07-24T01:05:56.097Z,99.90
2018-07-24T01:07:59.913Z,99.90
2018-07-24T01:10:03.870Z,99.90
2018-07-24T01:16:14.800Z,99.90
2018-07-24T01:18:18.526Z,99.90
2018-07-24T01:20:22.344Z,99.90
2018-07-24T01:22:26.123Z,99.90
2018-07-24T01:24:30.020Z,99.90
2018-07-24T01:26:33.778Z,99.90
2018-07-24T01:28:37.589Z,99.90
2018-07-24T01:30:41.349Z,99.90
2018-07-24T01:34:48.556Z,99.90
2018-07-24T01:36:52.327Z,99.90
2018-07-24T01:40:59.502Z,99.90
2018-07-24T01:45:06.723Z,99.90
2018-07-24T01:47:10.834Z,99.90
2018-07-24T01:49:14.697Z,99.90
2018-07-24T01:51:18.488Z,99.90
2018-07-24T01:53:22.292Z,99.90
2018-07-24T01:57:29.621Z,99.90
2018-07-24T01:59:33.524Z,99.90
2018-07-24T02:01:37.341Z,99.90
2018-07-24T02:03:41.164Z,99.90
2018-07-24T02:07:48.383Z,99.90
2018-07-24T02:09:52.301Z,99.90
2018-07-24T02:11:56.095Z,99.90
2018-07-24T02:13:59.950Z,99.90
2018-07-24T02:16:03.936Z,99.90
2018-07-24T02:18:07.757Z,99.90
2018-07-24T02:20:11.616Z,99.90
2018-07-24T02:22:15.480Z,99.90
2018-07-24T02:24:19.417Z,99.90
2018-07-24T02:26:23.300Z,99.90
2018-07-24T02:28:27.102Z,99.90
2018-07-24T02:30:30.925Z,99.90
2018-07-24T02:32:34.748Z,99.90
2018-07-24T02:34:38.551Z,99.90
2018-07-24T02:36:42.306Z,99.90
2018-07-24T02:44:56.727Z,99.90
2018-07-24T02:51:07.653Z,99.90
2018-07-24T02:53:11.613Z,99.90
2018-07-24T02:55:15.481Z,99.90
2018-07-24T02:57:19.230Z,99.90
2018-07-24T03:01:26.817Z,99.90
2018-07-24T03:03:30.961Z,99.90
2018-07-24T03:05:34.978Z,99.90
2018-07-24T03:09:46.402Z,99.90
2018-07-24T03:11:50.159Z,99.90
2018-07-24T03:13:54.000Z,99.90
2018-07-24T03:15:57.878Z,99.90
2018-07-24T03:18:15.617Z,99.90
2018-07-24T03:20:19.530Z,99.90
2018-07-24T03:22:23.576Z,99.90
2018-07-24T03:24:27.946Z,99.90
2018-07-24T03:28:35.492Z,99.90
2018-07-24T03:30:39.223Z,99.90
2018-07-24T03:32:43.178Z,99.90
2018-07-24T03:34:47.038Z,99.90
2018-07-24T03:36:50.880Z,99.90
2018-07-24T03:40:58.171Z,99.90
2018-07-24T03:43:01.979Z,99.90
2018-07-24T03:49:13.124Z,99.90
2018-07-24T03:55:23.870Z,99.90
2018-07-24T03:57:28.017Z,99.90
2018-07-24T03:59:32.276Z,99.90
2018-07-24T04:01:36.167Z,99.90
2018-07-24T04:05:55.407Z,99.90
2018-07-24T04:07:59.226Z,99.90
2018-07-24T04:10:03.104Z,99.90
2018-07-24T04:12:06.892Z,99.90
2018-07-24T04:14:11.121Z,99.90
2018-07-24T04:16:15.057Z,99.90
2018-07-24T04:18:19.093Z,99.90
2018-07-24T04:20:23.075Z,99.90
2018-07-24T04:22:27.120Z,99.90
2018-07-24T04:24:48.057Z,99.90
2018-07-24T04:26:52.071Z,99.90
2018-07-24T04:28:56.048Z,99.90
2018-07-24T04:31:00.094Z,99.90
2018-07-24T04:33:03.869Z,99.90
2018-07-24T04:35:07.752Z,99.90
2018-07-24T04:37:11.600Z,99.90
2018-07-24T04:39:15.783Z,99.90
2018-07-24T04:41:19.666Z,99.90
2018-07-24T04:43:23.542Z,99.90
2018-07-24T04:45:27.385Z,99.90
2018-07-24T04:47:31.266Z,99.90
2018-07-24T04:49:35.188Z,99.90
2018-07-24T04:51:39.181Z,99.90
2018-07-24T04:53:42.981Z,99.90
2018-07-24T04:55:47.095Z,99.90
2018-07-24T04:57:50.946Z,99.90
2018-07-24T05:01:58.354Z,99.90
2018-07-24T05:06:05.677Z,99.90
2018-07-24T05:10:13.077Z,99.90
2018-07-24T05:12:16.949Z,99.90
2018-07-24T05:16:24.463Z,99.90
2018-07-24T05:18:28.293Z,99.90
2018-07-24T05:22:35.718Z,99.90
2018-07-24T05:24:39.728Z,99.90
2018-07-24T05:26:43.618Z,99.90
2018-07-24T05:28:47.491Z,99.90
2018-07-24T05:30:51.355Z,99.90
2018-07-24T05:32:55.231Z,99.90
2018-07-24T05:34:59.071Z,99.90
2018-07-24T05:37:02.936Z,99.90
2018-07-24T05:39:08.984Z,99.90
2018-07-24T05:41:12.908Z,99.90
2018-07-24T05:43:16.681Z,99.90
2018-07-24T05:45:20.570Z,99.90
2018-07-24T05:47:24.355Z,99.90
2018-07-24T05:49:28.184Z,99.90
2018-07-24T05:51:32.017Z,99.90
2018-07-24T05:53:35.985Z,99.90
2018-07-24T05:55:39.811Z,99.90
2018-07-24T05:59:47.186Z,99.90
2018-07-24T06:01:51.073Z,99.90
2018-07-24T06:03:54.914Z,99.90
2018-07-24T06:05:58.862Z,99.90
2018-07-24T06:08:02.719Z,99.90
2018-07-24T06:10:06.533Z,99.90
2018-07-24T06:12:10.335Z,99.90
2018-07-24T06:14:14.172Z,99.90
2018-07-24T06:16:18.009Z,99.90
2018-07-24T06:18:21.887Z,99.90
2018-07-24T06:20:25.707Z,99.90
2018-07-24T06:22:29.532Z,99.90
2018-07-24T06:24:33.343Z,99.90
2018-07-24T06:26:37.242Z,99.90
2018-07-24T06:28:41.005Z,99.90
2018-07-24T06:30:44.852Z,99.90
2018-07-24T06:32:48.774Z,99.90
2018-07-24T06:34:52.669Z,99.90
2018-07-24T06:36:56.439Z,99.90
2018-07-24T06:39:00.295Z,99.90
2018-07-24T06:41:04.079Z,99.90
2018-07-24T06:43:08.069Z,99.90
2018-07-24T06:45:11.851Z,99.90
2018-07-24T06:47:15.696Z,99.90
2018-07-24T06:49:19.501Z,99.90
2018-07-24T06:51:23.375Z,99.90
2018-07-24T06:53:27.305Z,99.90
2018-07-24T06:55:31.179Z,99.90
2018-07-24T06:57:34.986Z,99.90
2018-07-24T06:59:40.329Z,99.90
2018-07-24T07:01:44.169Z,99.90
2018-07-24T07:03:47.933Z,99.90
2018-07-24T07:07:55.395Z,99.90
2018-07-24T07:09:59.227Z,99.90
2018-07-24T07:12:03.139Z,99.90
2018-07-24T07:14:07.287Z,99.90
2018-07-24T07:16:11.129Z,99.90
2018-07-24T07:18:15.060Z,99.90
2018-07-24T07:20:19.085Z,99.90
2018-07-24T07:22:22.968Z,99.90
2018-07-24T07:26:30.412Z,99.90
2018-07-24T07:28:34.218Z,99.90
2018-07-24T07:30:38.142Z,99.90
2018-07-24T07:34:45.475Z,99.90
2018-07-24T07:36:49.273Z,99.90
2018-07-24T07:38:53.142Z,99.90
2018-07-24T07:40:56.933Z,99.90
2018-07-24T07:43:00.755Z,99.90
2018-07-24T07:45:04.644Z,99.90
2018-07-24T07:47:08.690Z,99.90
2018-07-24T07:49:12.588Z,99.90
2018-07-24T07:51:16.477Z,99.90
2018-07-24T07:53:20.342Z,99.90
2018-07-24T07:55:24.180Z,99.90
2018-07-24T07:57:28.042Z,99.90
2018-07-24T07:59:31.956Z,99.90
2018-07-24T08:01:36.021Z,99.90
2018-07-24T08:03:39.982Z,99.90
2018-07-24T08:05:43.878Z,99.90
2018-07-24T08:07:47.858Z,99.90
2018-07-24T08:09:51.680Z,99.90
2018-07-24T08:11:55.640Z,99.90
2018-07-24T08:13:59.496Z,99.90
2018-07-24T08:16:03.375Z,99.90
2018-07-24T08:18:07.248Z,99.90
2018-07-24T08:20:11.140Z,99.90
2018-07-24T08:22:15.032Z,99.50
2018-07-24T08:24:18.961Z,99.70
2018-07-24T08:26:22.937Z,99.80
2018-07-24T08:28:26.849Z,99.90
2018-07-24T08:30:30.758Z,99.90
2018-07-24T08:32:34.751Z,99.90
2018-07-24T08:34:38.600Z,98.50
2018-07-24T08:36:42.655Z,98.90
2018-07-24T08:38:46.512Z,95.70
2018-07-24T08:40:50.445Z,95.90
2018-07-24T08:42:54.235Z,99.90
2018-07-24T08:44:59.133Z,99.90
2018-07-24T08:47:02.931Z,99.90
2018-07-24T08:49:07.727Z,94.80
2018-07-24T08:51:11.714Z,96.60
2018-07-24T08:53:15.830Z,95.70
2018-07-24T08:55:19.643Z,94.30
2018-07-24T08:57:23.692Z,92.40
2018-07-24T08:59:27.539Z,92.80
2018-07-24T09:01:31.532Z,93.00
2018-07-24T09:03:35.412Z,92.10
2018-07-24T09:05:39.374Z,90.00
2018-07-24T09:07:43.186Z,91.00
2018-07-24T09:09:47.072Z,92.50
2018-07-24T09:11:50.906Z,83.70
2018-07-24T09:13:54.772Z,84.20
2018-07-24T09:15:58.624Z,84.00
2018-07-24T09:18:02.722Z,90.10
2018-07-24T09:20:06.649Z,86.20
2018-07-24T09:22:10.577Z,92.60
2018-07-24T09:24:14.579Z,85.10
2018-07-24T09:26:18.844Z,82.60
2018-07-24T09:28:22.877Z,83.50
2018-07-24T09:30:27.266Z,84.00
2018-07-24T09:34:35.055Z,81.20
2018-07-24T09:36:39.217Z,79.60
2018-07-24T09:40:47.084Z,82.30
2018-07-24T09:42:51.383Z,82.70
2018-07-24T09:44:55.495Z,83.30
2018-07-24T09:46:59.693Z,83.50
2018-07-24T09:49:03.702Z,82.80
2018-07-24T09:51:07.934Z,92.10
2018-07-24T09:53:11.919Z,92.70
2018-07-24T09:57:20.062Z,85.20
2018-07-24T09:59:24.639Z,77.70
2018-07-24T10:01:31.167Z,78.40
2018-07-24T10:03:35.106Z,90.30
2018-07-24T10:05:39.013Z,87.30
2018-07-24T10:07:42.884Z,77.80
2018-07-24T10:09:46.809Z,78.70
2018-07-24T10:11:50.797Z,79.60
2018-07-24T10:13:54.647Z,78.20
2018-07-24T10:15:58.852Z,80.20
2018-07-24T10:20:06.927Z,91.10
2018-07-24T10:22:11.443Z,88.50
2018-07-24T10:24:15.529Z,76.00
2018-07-24T10:26:19.711Z,74.20
2018-07-24T10:28:23.885Z,76.80
2018-07-24T10:30:28.351Z,77.50
2018-07-24T10:34:36.186Z,77.00
2018-07-24T10:36:40.298Z,77.70
2018-07-24T10:38:44.304Z,83.30
2018-07-24T10:40:48.569Z,75.60
2018-07-24T10:42:52.816Z,76.20
2018-07-24T10:44:56.936Z,88.30
2018-07-24T10:47:00.754Z,85.50
2018-07-24T10:49:04.985Z,79.90
2018-07-24T10:51:09.141Z,75.30
2018-07-24T10:53:13.619Z,82.50
2018-07-24T10:57:21.571Z,73.50
2018-07-24T10:59:25.661Z,73.90
2018-07-24T11:01:30.128Z,76.60
2018-07-24T11:03:34.265Z,79.00
2018-07-24T11:05:41.114Z,81.20
2018-07-24T11:07:45.363Z,82.70
2018-07-24T11:09:49.651Z,79.10
2018-07-24T11:11:53.936Z,75.30
2018-07-24T11:13:58.387Z,82.20
2018-07-24T11:18:06.534Z,78.90
2018-07-24T11:20:10.589Z,74.40
2018-07-24T11:22:15.577Z,76.70
2018-07-24T11:28:27.476Z,75.70
2018-07-24T11:30:31.638Z,78.90
2018-07-24T11:32:36.022Z,77.20
2018-07-24T11:34:40.201Z,75.10
2018-07-24T11:36:44.355Z,70.80
2018-07-24T11:38:48.392Z,74.90
2018-07-24T11:42:56.001Z,72.00
2018-07-24T11:45:00.099Z,72.30
2018-07-24T11:47:04.359Z,71.70
2018-07-24T11:49:08.411Z,72.50
2018-07-24T11:51:12.304Z,79.60
2018-07-24T11:55:19.548Z,76.30
2018-07-24T11:57:23.466Z,73.20
2018-07-24T11:59:27.366Z,73.40
2018-07-24T12:01:31.247Z,75.80
2018-07-24T12:03:35.070Z,71.50
2018-07-24T12:05:40.287Z,71.70
2018-07-24T12:07:44.387Z,74.10
2018-07-24T12:09:48.500Z,77.50
2018-07-24T12:11:52.628Z,72.50
2018-07-24T12:13:56.616Z,71.10
2018-07-24T12:16:00.839Z,82.20
2018-07-24T12:18:05.598Z,82.50
2018-07-24T12:20:09.470Z,78.30
2018-07-24T12:22:13.330Z,72.40
2018-07-24T12:24:17.232Z,74.40
2018-07-24T12:26:21.070Z,82.50
2018-07-24T12:28:25.232Z,77.00
2018-07-24T12:30:29.265Z,69.30
2018-07-24T12:32:33.095Z,75.90
2018-07-24T12:34:37.258Z,75.50
2018-07-24T12:36:41.111Z,76.70
2018-07-24T12:38:44.895Z,73.70
2018-07-24T12:40:48.774Z,70.60
2018-07-24T12:42:52.771Z,69.30
2018-07-24T12:44:56.726Z,69.40
2018-07-24T12:47:00.559Z,69.90
2018-07-24T12:49:04.518Z,71.40
2018-07-24T12:51:08.429Z,70.90
2018-07-24T12:53:12.326Z,71.00
2018-07-24T12:55:16.166Z,71.90
2018-07-24T12:57:20.024Z,69.60
2018-07-24T12:59:23.845Z,71.00
2018-07-24T13:01:27.860Z,71.60
2018-07-24T13:03:31.646Z,73.20
2018-07-24T13:05:36.275Z,72.30
2018-07-24T13:07:40.242Z,71.10
2018-07-24T13:09:44.096Z,71.70
2018-07-24T13:11:47.875Z,70.10
2018-07-24T13:13:51.743Z,70.30
2018-07-24T13:15:55.560Z,72.90
2018-07-24T13:17:59.388Z,73.50
2018-07-24T13:20:03.239Z,73.30
2018-07-24T13:24:11.203Z,76.40
2018-07-24T13:26:15.283Z,76.10
2018-07-24T13:28:19.074Z,74.50
2018-07-24T13:30:22.986Z,68.60
2018-07-24T13:32:27.012Z,74.30
2018-07-24T13:34:30.847Z,74.70
2018-07-24T13:36:34.768Z,78.80
2018-07-24T13:38:38.664Z,77.50
2018-07-24T13:40:42.517Z,80.40
2018-07-24T13:42:46.405Z,83.00
2018-07-24T13:44:50.249Z,82.00
2018-07-24T13:46:54.359Z,74.80
2018-07-24T13:48:58.203Z,71.30
2018-07-24T13:51:02.031Z,69.50
2018-07-24T13:53:05.888Z,68.70
2018-07-24T13:55:09.820Z,73.60
2018-07-24T13:57:13.758Z,71.10
2018-07-24T13:59:18.107Z,68.80
2018-07-24T14:01:27.141Z,66.10
2018-07-24T14:03:31.071Z,67.10
2018-07-24T14:05:35.025Z,67.20
2018-07-24T14:07:38.846Z,67.10
2018-07-24T14:09:42.648Z,69.30
2018-07-24T14:11:46.489Z,69.70
2018-07-24T14:13:50.323Z,67.00
2018-07-24T14:17:57.596Z,66.60
2018-07-24T14:20:01.481Z,67.90
2018-07-24T14:22:05.525Z,68.40
2018-07-24T14:24:09.389Z,66.30
2018-07-24T14:26:13.207Z,66.50
2018-07-24T14:28:17.171Z,67.30
2018-07-24T14:30:21.002Z,68.20
2018-07-24T14:32:24.888Z,67.70
2018-07-24T14:34:28.657Z,66.80
2018-07-24T14:36:32.478Z,67.40
2018-07-24T14:38:36.274Z,69.60
2018-07-24T14:40:42.303Z,68.90
2018-07-24T14:42:46.138Z,69.10
2018-07-24T14:44:50.007Z,70.10
2018-07-24T14:46:53.821Z,68.50
2018-07-24T14:48:57.745Z,73.20
2018-07-24T14:51:01.680Z,73.60
2018-07-24T14:53:05.636Z,73.30
2018-07-24T14:55:09.514Z,70.90
2018-07-24T14:57:13.337Z,76.10
2018-07-24T14:59:17.226Z,76.30
2018-07-24T15:01:21.038Z,70.80
2018-07-24T15:03:24.945Z,74.10
2018-07-24T15:05:28.754Z,68.90
2018-07-24T15:07:32.966Z,67.10
2018-07-24T15:11:41.137Z,68.90
2018-07-24T15:13:45.220Z,70.00
2018-07-24T15:15:49.328Z,69.70
2018-07-24T15:17:53.138Z,73.70
2018-07-24T15:19:57.025Z,75.20
2018-07-24T15:22:01.067Z,68.80
2018-07-24T15:24:04.974Z,68.70
2018-07-24T15:26:08.787Z,66.90
2018-07-24T15:28:12.909Z,67.50
2018-07-24T15:30:19.240Z,66.70
2018-07-24T15:32:23.066Z,68.70
2018-07-24T15:34:27.027Z,65.50
2018-07-24T15:36:30.906Z,68.90
2018-07-24T15:38:36.118Z,73.90
2018-07-24T15:40:40.594Z,72.90
2018-07-24T15:42:44.655Z,72.20
2018-07-24T15:44:48.994Z,67.10
2018-07-24T15:46:53.169Z,69.40
2018-07-24T15:48:57.818Z,67.00
2018-07-24T15:51:01.864Z,66.80
2018-07-24T15:53:06.246Z,66.60
2018-07-24T15:55:10.557Z,66.00
2018-07-24T15:57:14.884Z,73.70
2018-07-24T15:59:18.959Z,68.10
2018-07-24T16:01:24.321Z,68.80
2018-07-24T16:03:28.429Z,65.30
2018-07-24T16:05:32.634Z,67.60
2018-07-24T16:07:36.651Z,68.80
2018-07-24T16:11:44.457Z,69.30
2018-07-24T16:13:48.579Z,66.30
2018-07-24T16:17:57.097Z,64.70
2018-07-24T16:20:00.904Z,65.30
2018-07-24T16:22:04.885Z,68.60
2018-07-24T16:24:08.858Z,67.90
2018-07-24T16:26:12.755Z,66.80
2018-07-24T16:28:16.937Z,67.60
2018-07-24T16:30:20.804Z,69.60
2018-07-24T16:34:28.277Z,66.10
2018-07-24T16:36:32.099Z,66.70
2018-07-24T16:40:39.717Z,99.90
2018-07-24T16:42:43.588Z,99.90
2018-07-24T16:44:47.467Z,99.90
2018-07-24T16:50:58.914Z,99.90
2018-07-24T16:53:02.761Z,99.90
2018-07-24T16:57:17.651Z,99.90
2018-07-24T17:01:26.608Z,99.90
2018-07-24T17:03:30.897Z,99.90
2018-07-24T17:09:42.527Z,99.90
2018-07-24T17:13:50.447Z,99.90
2018-07-24T17:15:54.636Z,99.90
2018-07-24T17:20:02.691Z,99.90
2018-07-24T17:22:06.966Z,99.90
2018-07-24T17:24:11.290Z,99.90
2018-07-24T17:26:15.468Z,99.90
2018-07-24T17:28:19.619Z,99.90
2018-07-24T17:30:24.925Z,99.90
2018-07-24T17:32:29.532Z,99.90
2018-07-24T17:34:33.687Z,99.90
2018-07-24T17:36:38.073Z,99.90
2018-07-24T17:38:53.338Z,99.90
2018-07-24T17:40:57.650Z,99.90
2018-07-24T17:43:01.781Z,99.70
2018-07-24T17:51:18.213Z,97.40
2018-07-24T17:53:22.343Z,95.20
2018-07-24T17:55:26.367Z,91.90
2018-07-24T17:57:30.450Z,92.20
2018-07-24T18:01:38.671Z,93.10
2018-07-24T18:03:42.680Z,93.80
2018-07-24T18:05:46.792Z,95.30
2018-07-24T18:07:50.794Z,94.70
2018-07-24T18:09:54.971Z,94.70
2018-07-24T18:11:58.988Z,93.30
2018-07-24T18:14:03.204Z,94.20
2018-07-24T18:16:07.395Z,95.40
2018-07-24T18:18:11.586Z,95.60
2018-07-24T18:20:15.821Z,94.40
2018-07-24T18:22:20.152Z,92.60
2018-07-24T18:24:24.305Z,97.40
2018-07-24T18:26:28.613Z,99.90
2018-07-24T18:28:32.620Z,92.90
2018-07-24T18:30:36.848Z,92.20
2018-07-24T18:32:41.211Z,93.60
2018-07-24T18:34:45.444Z,92.90
2018-07-24T18:36:49.594Z,99.10
2018-07-24T18:38:53.905Z,96.50
2018-07-24T18:45:05.609Z,99.90
2018-07-24T18:47:09.800Z,99.90
2018-07-24T18:49:14.107Z,99.90
2018-07-24T18:51:18.341Z,99.90
2018-07-24T18:57:30.316Z,99.90
2018-07-24T18:59:34.353Z,99.90
2018-07-24T19:03:42.080Z,99.90
2018-07-24T19:05:46.250Z,99.90
2018-07-24T19:07:50.491Z,99.90
2018-07-24T19:09:54.756Z,99.90
2018-07-24T19:11:59.083Z,99.90
2018-07-24T19:16:07.251Z,99.90
2018-07-24T19:18:11.272Z,99.90
2018-07-24T19:20:15.373Z,99.90
2018-07-24T19:22:20.790Z,99.90
2018-07-24T19:30:36.943Z,99.90
2018-07-24T19:34:44.676Z,99.90
2018-07-24T19:41:41.092Z,99.90
2018-07-24T19:43:45.277Z,99.90
2018-07-24T19:45:49.784Z,99.90
2018-07-24T19:47:53.653Z,99.90
2018-07-24T19:49:58.960Z,99.90
2018-07-24T19:52:02.967Z,99.90
2018-07-24T19:54:07.234Z,99.90
2018-07-24T19:56:11.479Z,99.90
2018-07-24T19:58:15.532Z,99.90
2018-07-24T20:00:19.515Z,99.90
2018-07-24T20:04:26.744Z,99.90
2018-07-24T20:06:30.637Z,99.90
2018-07-24T20:10:38.492Z,99.90
2018-07-24T20:16:49.385Z,99.90
2018-07-24T20:18:53.284Z,99.90
2018-07-24T20:25:08.118Z,99.90
2018-07-24T20:29:15.664Z,99.90
2018-07-24T20:31:19.680Z,99.90
2018-07-24T20:35:27.018Z,99.90
2018-07-24T20:37:30.838Z,99.90
2018-07-24T20:41:38.269Z,99.90
2018-07-24T20:43:42.108Z,99.90
2018-07-24T20:47:49.726Z,99.90
2018-07-24T20:54:00.679Z,99.90
2018-07-24T20:56:04.560Z,99.90
2018-07-24T20:58:08.339Z,99.90
2018-07-24T21:00:12.755Z,99.90
2018-07-24T21:02:16.538Z,99.90
2018-07-24T21:04:20.364Z,99.90
2018-07-24T21:06:24.134Z,99.90
2018-07-24T21:08:28.580Z,99.90
2018-07-24T21:10:32.383Z,99.90
2018-07-24T21:12:36.147Z,99.90
2018-07-24T21:14:39.943Z,99.90
2018-07-24T21:16:43.778Z,99.90
2018-07-24T21:18:48.971Z,99.90
2018-07-24T21:20:52.976Z,99.90
2018-07-24T21:22:56.701Z,99.90
2018-07-24T21:25:00.504Z,99.90
2018-07-24T21:27:04.474Z,99.90
2018-07-24T21:29:08.358Z,99.90
2018-07-24T21:31:12.195Z,99.90
2018-07-24T21:33:15.944Z,99.90
2018-07-24T21:35:19.920Z,99.90
2018-07-24T21:37:23.807Z,99.90
2018-07-24T21:39:27.673Z,99.90
2018-07-24T21:41:31.563Z,99.90
2018-07-24T21:43:35.416Z,99.90
2018-07-24T21:45:39.225Z,99.90
2018-07-24T21:49:46.609Z,99.90
2018-07-24T21:53:53.855Z,99.90
2018-07-24T21:55:57.661Z,99.90
2018-07-24T21:58:01.742Z,99.90
2018-07-24T22:02:10.351Z,99.90
2018-07-24T22:04:14.148Z,99.90
2018-07-24T22:06:17.916Z,99.90
2018-07-24T22:08:21.751Z,99.90
2018-07-24T22:10:25.537Z,99.90
2018-07-24T22:12:29.332Z,99.90
2018-07-24T22:14:33.288Z,99.90
2018-07-24T22:16:37.139Z,99.90
2018-07-24T22:18:41.120Z,99.90
2018-07-24T22:20:44.950Z,99.90
2018-07-24T22:22:49.172Z,99.90
2018-07-24T22:24:52.969Z,99.90
2018-07-24T22:26:58.798Z,99.90
2018-07-24T22:29:02.577Z,99.90
2018-07-24T22:31:06.407Z,99.90
2018-07-24T22:33:10.184Z,99.90
2018-07-24T22:35:14.088Z,99.90
2018-07-24T22:37:17.994Z,99.90
2018-07-24T22:39:21.801Z,99.90
2018-07-24T22:41:25.659Z,99.90
2018-07-24T22:43:29.481Z,99.90
2018-07-24T22:45:33.310Z,99.90
2018-07-24T22:47:37.189Z,99.90
2018-07-24T22:49:40.971Z,99.90
2018-07-24T22:53:50.377Z,99.90
2018-07-24T22:55:54.169Z,99.90
2018-07-24T22:57:58.133Z,99.90
2018-07-24T23:04:08.887Z,99.90
2018-07-24T23:06:12.687Z,99.90
2018-07-24T23:08:16.495Z,99.90
2018-07-24T23:10:20.359Z,99.90
2018-07-24T23:12:24.274Z,99.90
2018-07-24T23:16:31.558Z,99.90
2018-07-24T23:18:35.333Z,99.90
2018-07-24T23:20:39.126Z,99.90
2018-07-24T23:22:42.938Z,99.90
2018-07-24T23:24:46.752Z,99.90
2018-07-24T23:28:54.183Z,99.90
2018-07-24T23:30:58.093Z,99.90
2018-07-24T23:33:01.882Z,99.90
2018-07-24T23:35:05.734Z,99.90
2018-07-24T23:37:09.627Z,99.90
2018-07-24T23:39:13.439Z,99.90
2018-07-24T23:41:17.260Z,99.90
2018-07-24T23:43:21.040Z,99.90
2018-07-24T23:45:24.827Z,99.90
2018-07-24T23:47:28.732Z,99.90
2018-07-24T23:49:32.490Z,99.90
2018-07-24T23:51:36.318Z,99.90
2018-07-24T23:53:40.101Z,99.90
2018-07-24T23:55:43.849Z,99.90
2018-07-24T23:59:51.152Z,99.90
